Details for UPS at KRFD




Go Back


Latest METAR
Local Time

KRFD 221754Z VRB04KT 10SM FEW016 BKN033 20/15 A3008 RMK AO2 SLP184 T02000150 10206 20133 58001

22/05/2018, 12:58:21

Description
Results
UPS Logo
Number of Pilots based at KRFD
0 Pilots Based here
Number of UPS Flights Departed from KRFD
0 Flights Departed
Number of UPS Flights Arrived at KRFD
0 Flights Arrived
Number of UPS Schedules Departing from KRFD
167 Schedules
Number of UPS Schedules Arriving at KRFD
160 Schedules
Number of UPS Schedules Departing from KRFD availible today
46 Schedules Today
Number of UPS Schedules Arriving at KRFD availible today
45 Schedules Today
Average Landing Rate at KRFD
0 fpm
UPS Average Landing Rate at KRFD
0 fpm
Total Fuel Purchased at KRFD by UPS
0.00 kgs / 0.00 lbs

Pilots Based at KRFD


Pilot ID
Pilot Name
Pilot Rank
No. of Flights
No. of Flying Hours
There are no pilots assigned to this hub!   Will you be the first?
Content